Time;durP1;ratioP1;P1;durP2;ratioP2;P2;SDS_P1;SDS_P2;PMS_P1;PMS_P2;Temp;Humidity;BMP_temperature;BMP_pressure;BME280_temperature;BME280_humidity;BME280_pressure;Samples;Min_cycle;Max_cycle;Signal;HPM_P1;HPM_P2
2022/02/25 00:00:08;;;;;;;8.02;1.83;;;;;;;3.96;73.39;101686.78;4993021;28;20073;-76
2022/02/25 00:02:33;;;;;;;13.65;1.55;;;;;;;4.00;74.10;101691.13;5011302;28;20100;-76
2022/02/25 00:04:58;;;;;;;8.70;0.98;;;;;;;4.04;73.02;101686.81;4997934;28;20038;-76
2022/02/25 00:07:24;;;;;;;13.05;1.58;;;;;;;4.07;73.02;101715.31;4992921;28;20129;-76
2022/02/25 00:09:49;;;;;;;5.88;1.10;;;;;;;4.08;72.82;101703.22;5015106;28;20075;-76
2022/02/25 00:12:15;;;;;;;7.15;1.45;;;;;;;4.07;72.93;101691.13;5011903;28;20258;-76
2022/02/25 00:14:40;;;;;;;6.20;1.10;;;;;;;4.07;73.44;101697.16;5015004;28;20049;-76
2022/02/25 00:17:05;;;;;;;3.55;0.93;;;;;;;4.06;73.33;101684.19;5015879;28;20380;-76
2022/02/25 00:19:31;;;;;;;12.18;1.65;;;;;;;4.02;73.62;101685.91;5019549;28;20064;-76
2022/02/25 00:21:56;;;;;;;10.43;1.42;;;;;;;4.01;73.54;101692.00;5015614;28;20068;-76
2022/02/25 00:24:22;;;;;;;7.00;1.30;;;;;;;4.01;73.43;101703.22;4999095;28;20037;-76
2022/02/25 00:26:47;;;;;;;6.80;1.40;;;;;;;4.02;73.93;101701.47;5015124;28;20036;-76
2022/02/25 00:29:12;;;;;;;13.25;2.38;;;;;;;4.01;74.21;101707.53;4999515;28;20037;-76
2022/02/25 00:31:38;;;;;;;10.23;2.25;;;;;;;3.99;74.17;101711.88;5015479;28;20289;-76
2022/02/25 00:34:03;;;;;;;8.63;1.70;;;;;;;3.97;74.55;101708.41;5015120;28;20076;-76
2022/02/25 00:36:29;;;;;;;10.75;1.45;;;;;;;3.96;75.12;101710.13;4998393;28;20033;-76
2022/02/25 00:38:54;;;;;;;4.50;1.17;;;;;;;3.98;75.14;101715.31;4998623;28;20237;-76
2022/02/25 00:41:20;;;;;;;8.43;1.27;;;;;;;3.99;74.94;101701.50;5044607;28;20156;-76
2022/02/25 00:43:45;;;;;;;10.52;1.63;;;;;;;3.99;74.85;101709.28;5023454;28;20045;-76
2022/02/25 00:46:11;;;;;;;12.52;2.00;;;;;;;4.01;74.96;101715.31;5043396;28;20057;-76
2022/02/25 00:48:36;;;;;;;11.93;1.67;;;;;;;4.02;74.75;101719.63;5041644;28;20045;-76
2022/02/25 00:51:02;;;;;;;7.53;1.55;;;;;;;4.00;75.00;101717.06;5042808;28;20108;-76
2022/02/25 00:53:27;;;;;;;6.75;1.00;;;;;;;4.00;74.91;101710.97;5030630;28;20563;-76
2022/02/25 00:55:53;;;;;;;11.23;1.55;;;;;;;4.00;74.89;101717.06;5023426;28;20021;-76
2022/02/25 00:58:20;;;;;;;10.23;1.75;;;;;;;3.99;75.06;101719.66;5030073;28;20041;-76
2022/02/25 01:00:45;;;;;;;6.20;1.38;;;;;;;3.95;75.11;101716.19;5020793;28;20037;-76
2022/02/25 01:03:11;;;;;;;9.13;1.70;;;;;;;3.95;75.22;101721.38;5019582;28;20048;-76
2022/02/25 01:05:36;;;;;;;11.88;1.73;;;;;;;3.94;75.25;101717.03;5020526;28;20353;-76
2022/02/25 01:08:07;;;;;;;5.95;1.30;;;;;;;3.92;75.31;101716.16;5021075;28;20046;-76
2022/02/25 01:10:36;;;;;;;11.45;1.80;;;;;;;3.89;75.38;101716.16;5038489;28;20045;-76
2022/02/25 01:13:02;;;;;;;6.85;1.90;;;;;;;3.92;75.36;101711.00;5039050;28;20045;-76
2022/02/25 01:15:28;;;;;;;7.05;1.42;;;;;;;3.90;75.24;101710.13;5038559;28;20108;-76
2022/02/25 01:17:53;;;;;;;7.53;1.30;;;;;;;3.87;75.41;101720.47;5020969;28;20033;-76
2022/02/25 01:20:19;;;;;;;8.77;1.35;;;;;;;3.85;75.80;101724.81;5004361;28;20045;-76
2022/02/25 01:22:45;;;;;;;12.80;1.50;;;;;;;3.84;75.95;101726.53;5005316;28;20377;-76
2022/02/25 01:25:11;;;;;;;15.25;1.60;;;;;;;3.87;75.66;101728.25;5021393;28;20389;-76
2022/02/25 01:27:36;;;;;;;17.20;2.90;;;;;;;3.87;76.09;101728.25;5021835;28;20069;-76
2022/02/25 01:30:04;;;;;;;16.27;1.80;;;;;;;3.90;75.86;101720.50;5020990;28;20021;-76
2022/02/25 01:32:30;;;;;;;8.00;1.45;;;;;;;3.91;75.50;101731.72;5020760;28;20218;-76
2022/02/25 01:34:56;;;;;;;8.20;1.90;;;;;;;3.89;75.77;101729.13;5039388;28;20460;-77
2022/02/25 01:37:21;;;;;;;14.65;1.77;;;;;;;3.90;76.10;101720.50;5039129;28;20300;-76
2022/02/25 01:39:47;;;;;;;6.60;1.33;;;;;;;3.90;76.26;101725.69;5039466;28;20064;-76
2022/02/25 01:42:12;;;;;;;12.80;2.55;;;;;;;3.95;76.26;101733.47;5021530;28;20040;-76
2022/02/25 01:44:40;;;;;;;10.18;1.58;;;;;;;3.96;76.29;101730.00;5039893;28;20037;-76
2022/02/25 01:47:06;;;;;;;8.10;1.60;;;;;;;4.00;76.40;101723.94;5017255;28;20051;-76
2022/02/25 01:49:32;;;;;;;13.52;1.80;;;;;;;4.02;75.93;101724.81;5038962;28;20059;-76
2022/02/25 01:52:04;;;;;;;10.07;1.48;;;;;;;4.03;75.83;101736.91;5038141;28;20052;-76
2022/02/25 01:54:30;;;;;;;14.63;1.77;;;;;;;4.04;75.57;101731.75;5038593;28;20064;-76
2022/02/25 01:56:57;;;;;;;14.65;2.42;;;;;;;4.03;75.68;101724.81;5038755;28;20407;-76
2022/02/25 01:59:23;;;;;;;10.43;1.63;;;;;;;4.03;75.58;101726.53;5019920;28;20064;-76
2022/02/25 02:01:49;;;;;;;13.68;2.13;;;;;;;4.03;76.09;101722.22;5024173;28;20080;-76
2022/02/25 02:04:15;;;;;;;13.35;1.70;;;;;;;4.07;75.90;101727.41;5045595;28;20041;-76
2022/02/25 02:06:40;;;;;;;10.30;1.58;;;;;;;4.09;75.70;101718.75;5025380;28;20139;-76
2022/02/25 02:09:07;;;;;;;12.75;1.77;;;;;;;4.09;75.87;101720.50;5038502;28;20075;-76
2022/02/25 02:11:45;;;;;;;7.93;1.30;;;;;;;4.10;75.93;101719.66;5020687;28;20044;-76
2022/02/25 02:14:16;;;;;;;10.17;1.60;;;;;;;4.08;76.22;101724.81;5038157;28;20041;-76
2022/02/25 02:16:42;;;;;;;9.48;1.30;;;;;;;4.10;76.13;101727.44;5038145;28;20109;-76
2022/02/25 02:19:08;;;;;;;6.10;1.48;;;;;;;4.10;76.54;101715.31;5053632;28;20268;-76
2022/02/25 02:21:39;;;;;;;8.52;1.48;;;;;;;4.10;76.22;101717.06;5045901;28;20053;-77
2022/02/25 02:24:05;;;;;;;7.35;1.65;;;;;;;4.11;76.37;101714.47;5037735;28;20104;-76
2022/02/25 02:26:31;;;;;;;6.15;1.23;;;;;;;4.11;76.60;101718.78;5038194;28;20152;-76
2022/02/25 02:28:56;;;;;;;9.73;2.00;;;;;;;4.13;76.61;101717.91;5019743;28;20330;-76
2022/02/25 02:31:22;;;;;;;12.98;1.48;;;;;;;4.15;76.54;101717.94;5020143;28;20041;-76
2022/02/25 02:33:47;;;;;;;9.57;1.55;;;;;;;4.16;76.84;101720.50;5001933;28;20041;-76
2022/02/25 02:36:13;;;;;;;8.90;2.25;;;;;;;4.18;77.04;101712.72;5037780;28;20037;-76
2022/02/25 02:38:39;;;;;;;10.55;1.95;;;;;;;4.18;77.34;101715.31;5038131;28;20033;-76
2022/02/25 02:41:06;;;;;;;7.07;1.48;;;;;;;4.18;77.21;101704.94;5019869;28;20100;-76
2022/02/25 02:43:33;;;;;;;5.18;1.30;;;;;;;4.20;77.08;101711.88;5038129;28;20041;-76
2022/02/25 02:45:58;;;;;;;12.00;2.08;;;;;;;4.19;77.21;101710.13;5019843;28;20104;-76
2022/02/25 02:48:24;;;;;;;9.60;1.73;;;;;;;4.20;77.23;101700.63;5019982;28;20091;-76
2022/02/25 02:50:50;;;;;;;9.63;1.70;;;;;;;4.21;77.08;101698.03;5037223;28;20021;-76
2022/02/25 02:53:15;;;;;;;12.48;2.00;;;;;;;4.21;77.23;101702.34;5019822;28;20064;-76
2022/02/25 02:55:42;;;;;;;15.30;1.95;;;;;;;4.18;77.51;101692.88;5038174;28;20341;-76
2022/02/25 02:58:08;;;;;;;10.68;2.38;;;;;;;4.20;77.13;101698.91;5019897;28;20042;-76
2022/02/25 03:00:34;;;;;;;15.45;2.00;;;;;;;4.19;77.11;101697.16;5020422;28;20148;-76
2022/02/25 03:02:59;;;;;;;12.38;1.88;;;;;;;4.19;77.20;101686.78;5037293;28;20114;-76
2022/02/25 03:05:25;;;;;;;8.85;1.63;;;;;;;4.19;76.93;101684.19;5019804;28;20332;-76
2022/02/25 03:07:51;;;;;;;8.32;1.58;;;;;;;4.21;76.99;101682.47;5019491;28;20065;-76
2022/02/25 03:10:17;;;;;;;8.88;1.90;;;;;;;4.20;77.12;101688.53;5019941;28;20049;-76
2022/02/25 03:12:43;;;;;;;7.53;1.42;;;;;;;4.18;77.05;101686.78;5020026;28;20217;-76
2022/02/25 03:15:10;;;;;;;12.38;2.03;;;;;;;4.19;76.90;101681.59;5037018;28;20307;-76
2022/02/25 03:17:37;;;;;;;11.43;1.67;;;;;;;4.22;77.16;101678.13;5003192;28;20029;-76
2022/02/25 03:20:03;;;;;;;16.38;2.30;;;;;;;4.23;77.20;101679.88;5019335;28;20099;-76
2022/02/25 03:22:29;;;;;;;15.13;2.45;;;;;;;4.21;77.31;101689.41;5020063;28;20045;-76
2022/02/25 03:24:55;;;;;;;12.52;2.28;;;;;;;4.24;77.63;101699.78;5020614;28;20033;-76
2022/02/25 03:27:21;;;;;;;7.43;1.50;;;;;;;4.23;77.73;101693.69;5021068;28;20037;-76
2022/02/25 03:29:46;;;;;;;14.60;2.53;;;;;;;4.24;77.48;101702.38;4988981;28;20112;-76
2022/02/25 03:32:11;;;;;;;20.92;2.00;;;;;;;4.23;77.77;101708.41;5021754;28;20048;-76
2022/02/25 03:34:37;;;;;;;18.70;2.10;;;;;;;4.22;77.62;101723.09;5040375;28;20222;-76
2022/02/25 03:37:03;;;;;;;12.65;2.00;;;;;;;4.25;77.57;101704.06;5038441;28;20041;-76
2022/02/25 03:39:29;;;;;;;8.88;1.70;;;;;;;4.27;77.24;101698.91;5020539;28;20073;-76
2022/02/25 03:41:57;;;;;;;13.68;2.17;;;;;;;4.29;77.27;101694.56;5029825;28;20026;-76
2022/02/25 03:44:22;;;;;;;12.25;1.63;;;;;;;4.29;77.45;101695.41;5001735;28;20097;-77
2022/02/25 03:46:48;;;;;;;14.85;2.28;;;;;;;4.31;77.50;101693.72;5032882;28;20360;-76
2022/02/25 03:49:17;;;;;;;5.63;1.38;;;;;;;4.32;77.29;101694.56;5020655;28;20049;-76
2022/02/25 03:51:43;;;;;;;;;;;;;;;4.31;77.52;101698.03;5036291;28;20076;-76
2022/02/25 03:54:08;;;;;;;14.02;1.63;;;;;;;4.29;77.35;101698.00;5036603;28;19925;-76
2022/02/25 03:56:34;;;;;;;11.52;2.03;;;;;;;4.31;77.55;101703.19;5037046;28;20041;-76
2022/02/25 03:58:59;;;;;;;11.68;2.20;;;;;;;4.30;77.90;101698.91;5036704;28;20104;-76
2022/02/25 04:01:25;;;;;;;7.88;1.90;;;;;;;4.31;78.17;101695.41;5018710;28;20032;-76
2022/02/25 04:03:51;;;;;;;8.27;2.80;;;;;;;4.34;77.97;101701.47;5036634;28;20257;-76
2022/02/25 04:06:17;;;;;;;19.73;2.53;;;;;;;4.34;78.39;101695.44;5018661;28;20382;-76
2022/02/25 04:08:43;;;;;;;10.15;2.17;;;;;;;4.33;78.50;101702.34;5018922;28;20096;-76
2022/02/25 04:11:09;;;;;;;14.38;2.35;;;;;;;4.33;78.73;101709.25;5035941;28;20333;-76
2022/02/25 04:13:35;;;;;;;13.27;2.65;;;;;;;4.35;78.88;101698.03;5036734;28;20369;-76
2022/02/25 04:16:00;;;;;;;13.85;2.05;;;;;;;4.35;79.04;101710.13;5036268;28;20041;-76
2022/02/25 04:18:27;;;;;;;12.27;2.22;;;;;;;4.36;78.99;101715.28;5002205;28;20388;-76
2022/02/25 04:20:53;;;;;;;13.38;1.98;;;;;;;4.39;79.07;101710.13;5018122;28;20308;-76
2022/02/25 04:23:18;;;;;;;15.48;2.38;;;;;;;4.43;79.14;101716.16;5036194;28;20037;-76
2022/02/25 04:25:44;;;;;;;13.23;1.83;;;;;;;4.43;79.25;101704.06;5004390;28;20014;-76
2022/02/25 04:28:09;;;;;;;17.33;2.83;;;;;;;4.47;79.16;101722.22;5022094;28;20107;-76
2022/02/25 04:30:34;;;;;;;16.08;2.20;;;;;;;4.46;79.86;101700.59;5003258;28;20544;-76
2022/02/25 04:33:00;;;;;;;15.88;2.25;;;;;;;4.46;80.05;101718.75;5031573;28;20029;-76
2022/02/25 04:35:25;;;;;;;13.02;2.35;;;;;;;4.49;79.53;101707.50;5038497;28;20348;-76
2022/02/25 04:37:51;;;;;;;14.45;2.58;;;;;;;4.51;79.61;101703.19;5040322;28;20100;-76
2022/02/25 04:40:17;;;;;;;16.20;2.60;;;;;;;4.51;79.64;101687.63;5040413;28;20064;-76
2022/02/25 04:42:43;;;;;;;7.82;1.98;;;;;;;4.56;78.75;101699.69;5040272;28;20040;-76
2022/02/25 04:45:09;;;;;;;13.27;2.80;;;;;;;4.56;79.14;101689.31;5039718;28;20041;-76
2022/02/25 04:47:35;;;;;;;24.48;2.55;;;;;;;4.56;80.76;101706.63;5040039;28;20076;-76
2022/02/25 04:50:01;;;;;;;11.23;1.80;;;;;;;4.55;80.51;101704.91;5022361;28;20045;-76
2022/02/25 04:52:26;;;;;;;13.45;2.10;;;;;;;4.55;80.73;101700.59;5022470;28;20091;-76
2022/02/25 04:54:51;;;;;;;14.88;2.10;;;;;;;4.51;81.35;101704.06;5039910;28;20052;-76
2022/02/25 04:57:17;;;;;;;19.08;3.00;;;;;;;4.41;81.95;101723.94;5021795;28;20036;-76
2022/02/25 04:59:43;;;;;;;7.28;2.38;;;;;;;4.36;82.62;101722.22;5006374;28;20029;-76
2022/02/25 05:02:08;;;;;;;12.63;2.15;;;;;;;4.31;84.36;101724.84;5022446;28;20236;-76
2022/02/25 05:04:34;;;;;;;11.02;2.03;;;;;;;4.21;85.30;101712.72;5039932;28;20101;-76
2022/02/25 05:07:00;;;;;;;14.55;2.35;;;;;;;4.15;85.69;101703.22;5021781;28;20061;-76
2022/02/25 05:09:25;;;;;;;16.50;2.05;;;;;;;4.10;85.93;101728.28;5021918;28;20041;-76
2022/02/25 05:11:51;;;;;;;17.52;2.20;;;;;;;4.17;85.35;101716.19;5039452;28;20110;-76
2022/02/25 05:22:29;;;;;;;20.08;2.58;;;;;;;4.18;85.79;101730.88;5039476;28;20388;-76
2022/02/25 05:24:55;;;;;;;14.10;2.53;;;;;;;4.21;85.43;101736.06;5017503;28;20037;-77
2022/02/25 05:27:21;;;;;;;15.32;2.15;;;;;;;4.23;84.94;101731.75;5059745;28;20068;-76
2022/02/25 05:29:47;;;;;;;12.68;2.10;;;;;;;4.26;84.60;101741.22;5023234;28;20056;-77
2022/02/25 05:32:13;;;;;;;11.68;2.40;;;;;;;4.28;84.19;101745.56;5038999;28;20079;-76
2022/02/25 05:34:38;;;;;;;13.05;2.35;;;;;;;4.36;83.06;101741.22;5021242;28;20303;-76
2022/02/25 05:37:04;;;;;;;13.90;1.95;;;;;;;4.41;82.25;101747.28;5037328;28;20041;-76
2022/02/25 05:39:29;;;;;;;14.18;2.15;;;;;;;4.50;81.24;101758.53;5021663;28;20099;-76
2022/02/25 05:41:54;;;;;;;11.95;2.20;;;;;;;4.54;81.03;101747.28;5039004;28;20044;-76
2022/02/25 05:44:20;;;;;;;6.80;1.60;;;;;;;4.55;80.77;101760.25;5002034;28;20210;-77
2022/02/25 05:46:46;;;;;;;6.65;2.13;;;;;;;4.57;80.63;101761.13;5021569;28;20033;-76
2022/02/25 05:49:11;;;;;;;10.32;1.75;;;;;;;4.58;80.37;101777.53;5038868;28;20095;-76
2022/02/25 05:51:37;;;;;;;16.63;1.95;;;;;;;4.59;80.17;101776.69;5039263;28;20056;-76
2022/02/25 05:54:02;;;;;;;10.82;1.48;;;;;;;4.63;79.94;101765.44;5020814;28;20233;-76
2022/02/25 05:56:28;;;;;;;13.48;2.08;;;;;;;4.65;79.58;101768.03;5038877;28;20037;-76
2022/02/25 05:58:53;;;;;;;8.75;1.73;;;;;;;4.63;80.02;101775.81;5038362;28;20025;-76
2022/02/25 06:01:19;;;;;;;11.80;2.00;;;;;;;4.66;79.62;101796.56;5021389;28;20052;-76
2022/02/25 06:03:45;;;;;;;8.88;1.77;;;;;;;4.67;79.26;101787.91;5016916;28;20275;-76
2022/02/25 06:06:10;;;;;;;14.25;2.22;;;;;;;4.68;79.05;101797.44;5038522;28;20326;-76
2022/02/25 06:08:35;;;;;;;10.07;1.80;;;;;;;4.69;79.11;101790.50;5038568;28;20090;-76
2022/02/25 06:11:01;;;;;;;11.85;1.75;;;;;;;4.68;79.40;101799.16;5038720;28;20045;-76
2022/02/25 06:13:26;;;;;;;21.08;2.67;;;;;;;4.70;79.49;101805.22;5020366;28;20261;-76
2022/02/25 06:15:52;;;;;;;8.32;1.35;;;;;;;4.69;79.86;101837.22;5020705;28;20037;-76
2022/02/25 06:18:17;;;;;;;5.75;1.40;;;;;;;4.72;79.44;101822.50;5020215;28;20036;-76
2022/02/25 06:20:43;;;;;;;12.10;1.65;;;;;;;4.70;79.88;101823.38;5020335;28;20253;-76
2022/02/25 06:23:09;;;;;;;8.05;1.70;;;;;;;4.71;79.91;101838.06;5037942;28;20276;-77
2022/02/25 06:25:35;;;;;;;14.05;2.05;;;;;;;4.71;80.04;101840.66;5038442;28;20029;-76
2022/02/25 06:28:01;;;;;;;5.93;1.73;;;;;;;4.75;79.97;101856.25;5020649;28;20072;-77
2022/02/25 06:30:26;;;;;;;10.05;1.88;;;;;;;4.76;79.71;101838.94;5016028;28;20333;-76
2022/02/25 06:32:52;;;;;;;9.98;2.00;;;;;;;4.77;79.65;101848.47;4987745;28;20033;-76
2022/02/25 06:35:18;;;;;;;9.93;1.70;;;;;;;4.78;79.31;101848.47;5021208;28;20037;-76
2022/02/25 06:37:43;;;;;;;17.98;1.98;;;;;;;4.80;79.64;101851.03;5019700;28;20272;-77
2022/02/25 06:40:10;;;;;;;12.45;2.80;;;;;;;4.78;79.21;101866.66;5020035;28;20044;-77
2022/02/25 06:42:36;;;;;;;10.85;1.83;;;;;;;4.80;78.94;101864.03;5038050;28;20389;-76
2022/02/25 06:45:02;;;;;;;11.93;1.92;;;;;;;4.80;79.33;101877.88;5037580;28;20272;-76
2022/02/25 06:47:28;;;;;;;17.55;2.05;;;;;;;4.83;79.34;101873.56;5037610;28;20060;-76
2022/02/25 06:49:54;;;;;;;14.52;1.92;;;;;;;4.83;79.81;101873.56;5018639;28;20415;-76
2022/02/25 06:52:19;;;;;;;14.98;1.90;;;;;;;4.84;79.75;101867.47;5017927;28;20100;-77
2022/02/25 06:54:44;;;;;;;11.27;1.80;;;;;;;4.84;80.01;101878.75;5018771;28;20057;-77
2022/02/25 06:57:10;;;;;;;11.13;1.92;;;;;;;4.86;80.10;101884.81;5016749;28;20202;-77
2022/02/25 06:59:36;;;;;;;13.00;1.70;;;;;;;4.88;79.85;101890.00;5018681;28;20057;-76
2022/02/25 07:02:02;;;;;;;11.70;2.03;;;;;;;4.90;79.89;101893.47;5035814;28;20229;-77
2022/02/25 07:04:27;;;;;;;12.95;2.35;;;;;;;4.92;79.84;101894.31;5034552;28;20143;-76
2022/02/25 07:06:54;;;;;;;14.00;2.88;;;;;;;4.90;80.23;101899.50;5034966;28;20041;-77
2022/02/25 07:09:20;;;;;;;10.90;2.30;;;;;;;4.90;80.17;101901.25;5017147;28;20037;-77
2022/02/25 07:11:45;;;;;;;15.30;2.58;;;;;;;4.92;80.14;101913.34;5035781;28;20048;-77
2022/02/25 07:14:10;;;;;;;10.63;2.20;;;;;;;4.94;80.38;101921.13;5035256;28;20059;-76
2022/02/25 07:16:36;;;;;;;16.95;2.83;;;;;;;4.96;80.37;101927.19;5035712;28;20371;-77
2022/02/25 07:19:02;;;;;;;12.38;2.05;;;;;;;4.94;80.53;101927.19;5018059;28;20041;-76
2022/02/25 07:21:27;;;;;;;13.38;2.67;;;;;;;4.93;80.64;101930.66;5016249;28;20057;-76
2022/02/25 07:23:53;;;;;;;13.60;2.50;;;;;;;4.94;80.79;101936.72;5000718;28;20083;-77
2022/02/25 07:26:18;;;;;;;13.50;1.77;;;;;;;4.96;80.57;101955.75;5017710;28;20033;-76
2022/02/25 07:28:44;;;;;;;17.98;3.72;;;;;;;5.00;80.29;101955.75;5035448;28;20124;-76
2022/02/25 07:31:09;;;;;;;17.25;2.85;;;;;;;5.02;80.41;101966.16;5035167;28;20348;-77
2022/02/25 07:33:35;;;;;;;12.00;2.05;;;;;;;5.02;80.61;101962.66;4990526;28;20038;-77
2022/02/25 07:36:00;;;;;;;13.65;2.17;;;;;;;5.02;80.40;101963.56;5030405;28;20333;-76
2022/02/25 07:38:26;;;;;;;11.20;2.38;;;;;;;5.05;80.15;101971.31;5004274;28;20086;-76
2022/02/25 07:40:51;;;;;;;12.00;2.65;;;;;;;5.09;80.15;101979.97;5029675;28;20056;-77
2022/02/25 07:43:19;;;;;;;16.17;2.53;;;;;;;5.10;79.70;101973.94;5015863;28;20048;-76
2022/02/25 07:45:47;;;;;;;12.45;1.90;;;;;;;5.12;79.61;101972.19;5017154;28;20101;-77
2022/02/25 07:48:12;;;;;;;16.58;2.38;;;;;;;5.15;79.35;101982.59;5022412;28;20109;-76
2022/02/25 07:50:38;;;;;;;16.52;2.60;;;;;;;5.15;79.30;101982.59;5030718;28;20048;-76
2022/02/25 07:53:03;;;;;;;7.28;1.83;;;;;;;5.14;79.80;101996.44;5034381;28;20037;-77
2022/02/25 07:55:30;;;;;;;15.15;2.42;;;;;;;5.13;80.05;101980.00;5036225;28;20060;-77
2022/02/25 07:57:56;;;;;;;6.43;1.70;;;;;;;5.13;79.42;102005.97;5025096;28;20110;-76
2022/02/25 08:00:24;;;;;;;11.40;2.17;;;;;;;5.12;79.24;101998.16;5030708;28;20046;-76
2022/02/25 08:02:50;;;;;;;8.63;1.80;;;;;;;5.10;79.22;102007.69;5031994;28;20041;-76
2022/02/25 08:05:15;;;;;;;13.60;2.28;;;;;;;5.05;78.96;102005.09;5031970;28;20052;-76
2022/02/25 08:07:42;;;;;;;12.60;1.98;;;;;;;5.07;78.71;102028.47;5033545;28;20064;-77
2022/02/25 08:10:09;;;;;;;11.65;2.10;;;;;;;5.09;78.96;102030.19;5014548;28;20091;-77
2022/02/25 08:12:34;;;;;;;13.82;2.55;;;;;;;5.08;78.96;102033.66;5015948;28;20044;-76
2022/02/25 08:15:00;;;;;;;9.80;2.08;;;;;;;5.10;78.84;102038.84;5014866;28;20065;-76
2022/02/25 08:17:25;;;;;;;12.10;2.05;;;;;;;5.12;78.84;102040.56;5033031;28;20104;-76
2022/02/25 08:19:51;;;;;;;13.90;2.67;;;;;;;5.13;79.27;102039.72;5031180;28;20033;-76
2022/02/25 08:22:18;;;;;;;15.38;1.92;;;;;;;5.14;79.38;102049.22;5025151;28;20076;-77
2022/02/25 08:24:44;;;;;;;12.82;2.95;;;;;;;5.15;78.99;102048.38;5014192;28;20329;-77
2022/02/25 08:27:10;;;;;;;19.00;2.97;;;;;;;5.17;78.66;102070.03;5012474;28;20041;-76
2022/02/25 08:29:35;;;;;;;13.88;2.40;;;;;;;5.18;78.90;102058.78;5027091;28;20033;-76
2022/02/25 08:32:01;;;;;;;15.57;2.03;;;;;;;5.19;79.22;102064.84;5035259;28;20052;-77
2022/02/25 08:34:26;;;;;;;10.57;1.92;;;;;;;5.20;79.35;102069.16;5014781;28;20120;-76
2022/02/25 08:36:55;;;;;;;15.88;2.17;;;;;;;5.20;79.10;102079.53;5031341;28;20105;-76
2022/02/25 08:39:24;;;;;;;15.10;2.20;;;;;;;5.21;79.01;102096.00;5033094;28;20109;-76
2022/02/25 08:41:50;;;;;;;15.18;2.25;;;;;;;5.22;78.87;102089.94;4990587;28;20352;-76
2022/02/25 08:44:16;;;;;;;12.30;2.15;;;;;;;5.22;79.27;102092.53;5014881;28;20041;-76
2022/02/25 08:46:42;;;;;;;12.32;2.40;;;;;;;5.23;79.22;102104.66;5015357;28;20120;-76
2022/02/25 08:49:08;;;;;;;10.52;2.15;;;;;;;5.25;79.28;102102.94;5014860;28;20029;-76
2022/02/25 08:51:33;;;;;;;10.65;2.65;;;;;;;5.24;79.23;102117.66;5031063;28;20037;-76
2022/02/25 08:53:59;;;;;;;19.08;3.05;;;;;;;5.25;79.23;102113.31;5011514;28;20283;-76
2022/02/25 08:56:26;;;;;;;17.27;2.83;;;;;;;5.27;79.37;102117.66;5033435;28;20329;-77
2022/02/25 08:58:51;;;;;;;9.40;1.77;;;;;;;5.30;79.25;102119.41;5032037;28;20061;-76
2022/02/25 09:01:17;;;;;;;11.02;2.00;;;;;;;5.31;79.08;102113.31;5014425;28;20025;-76
2022/02/25 09:03:43;;;;;;;13.93;2.38;;;;;;;5.31;79.21;102122.00;5039865;28;20340;-77
2022/02/25 09:06:08;;;;;;;8.93;2.25;;;;;;;5.33;79.13;102132.38;5032473;28;20022;-77
2022/02/25 09:08:34;;;;;;;15.30;2.00;;;;;;;5.33;79.57;102124.56;5015266;28;20041;-77
2022/02/25 09:10:59;;;;;;;17.00;2.38;;;;;;;5.34;79.68;102134.97;5033698;28;20025;-76
2022/02/25 09:13:25;;;;;;;11.63;2.05;;;;;;;5.35;79.49;102146.25;5017987;28;20345;-76
2022/02/25 09:15:50;;;;;;;14.90;2.42;;;;;;;5.33;79.47;102145.34;5036790;28;20415;-76
2022/02/25 09:18:15;;;;;;;16.23;2.65;;;;;;;5.34;79.71;102137.56;5017282;28;20234;-76
2022/02/25 09:20:43;;;;;;;13.35;2.33;;;;;;;5.36;79.71;102147.97;5016098;28;20404;-76
2022/02/25 09:23:09;;;;;;;13.20;2.35;;;;;;;5.37;79.87;102145.38;5029696;28;20234;-76
2022/02/25 09:25:35;;;;;;;12.90;2.13;;;;;;;5.39;79.46;102155.78;5032339;28;20113;-76
2022/02/25 09:28:00;;;;;;;13.85;2.60;;;;;;;5.42;79.69;102155.81;5034220;28;20076;-76
2022/02/25 09:30:27;;;;;;;18.50;2.70;;;;;;;5.42;79.89;102155.81;5035822;28;20047;-76
2022/02/25 09:32:53;;;;;;;10.95;2.90;;;;;;;5.44;79.73;102158.38;5015879;28;20095;-76
2022/02/25 09:35:19;;;;;;;19.50;2.22;;;;;;;5.44;79.95;102156.66;5017590;28;20029;-76
2022/02/25 09:37:45;;;;;;;21.48;3.20;;;;;;;5.43;79.85;102167.91;5036785;28;20037;-76
2022/02/25 09:40:14;;;;;;;11.48;2.30;;;;;;;5.46;79.96;102172.25;5035164;28;20086;-76
2022/02/25 09:42:42;;;;;;;17.40;2.67;;;;;;;5.46;79.82;102180.06;5035219;28;20132;-76
2022/02/25 09:45:10;;;;;;;17.98;2.65;;;;;;;5.48;80.17;102188.72;5017689;28;20052;-76
2022/02/25 09:47:36;;;;;;;9.27;2.15;;;;;;;5.49;79.93;102178.31;5036399;28;20033;-77
2022/02/25 09:50:04;;;;;;;14.15;2.38;;;;;;;5.51;79.38;102184.41;5035244;28;20152;-76
2022/02/25 09:52:32;;;;;;;10.68;2.03;;;;;;;5.53;79.97;102199.97;5034526;28;20229;-76
2022/02/25 09:54:57;;;;;;;12.25;2.42;;;;;;;5.54;79.68;102191.31;5036047;28;20291;-76
2022/02/25 09:57:23;;;;;;;17.05;2.40;;;;;;;5.57;79.67;102201.72;5018334;28;20049;-76
2022/02/25 09:59:48;;;;;;;14.05;2.45;;;;;;;5.58;79.70;102200.84;4999785;28;20105;-77
2022/02/25 10:02:14;;;;;;;15.07;2.58;;;;;;;5.64;79.81;102210.38;5024164;28;20349;-76
2022/02/25 10:04:39;;;;;;;13.55;3.33;;;;;;;5.65;79.04;102214.72;5001521;28;20104;-76
2022/02/25 10:07:25;;;;;;;11.88;2.50;;;;;;;5.68;79.43;102220.81;5036195;28;20349;-76
2022/02/25 10:09:53;;;;;;;17.23;2.70;;;;;;;5.67;79.73;102216.47;5035541;28;20332;-76
2022/02/25 10:12:19;;;;;;;23.55;2.90;;;;;;;5.68;79.45;102227.75;5035023;28;20048;-76
2022/02/25 10:14:47;;;;;;;21.67;2.25;;;;;;;5.71;79.17;102235.53;5035304;28;20087;-76
2022/02/25 10:17:17;;;;;;;7.93;1.98;;;;;;;5.72;78.37;102252.88;5012383;28;20107;-76
2022/02/25 10:19:45;;;;;;;10.70;2.70;;;;;;;5.73;78.74;102255.47;5033354;28;20033;-76
2022/02/25 10:22:27;;;;;;;11.15;2.03;;;;;;;5.76;79.17;102245.06;5030504;28;20045;-76
2022/02/25 10:24:52;;;;;;;12.10;1.92;;;;;;;5.75;78.45;102235.53;5030736;28;20328;-76
2022/02/25 10:27:26;;;;;;;18.33;2.50;;;;;;;5.75;78.57;102253.75;5036020;28;20045;-76
2022/02/25 10:29:52;;;;;;;8.50;1.85;;;;;;;5.76;78.75;102260.66;5034601;28;20057;-76
2022/02/25 10:32:29;;;;;;;13.18;1.67;;;;;;;5.77;79.03;102256.34;5013183;28;20283;-76
2022/02/25 10:34:55;;;;;;;10.63;2.25;;;;;;;5.78;79.51;102245.06;5036756;28;20104;-76
2022/02/25 10:37:20;;;;;;;10.45;2.30;;;;;;;5.83;79.70;102271.09;5034998;28;20064;-76
2022/02/25 10:39:47;;;;;;;13.45;2.22;;;;;;;5.85;78.84;102271.97;5008220;28;20217;-76
2022/02/25 10:42:19;;;;;;;12.70;1.95;;;;;;;5.89;79.07;102269.34;5006110;28;20038;-76
2022/02/25 10:44:57;;;;;;;19.65;2.85;;;;;;;5.93;79.38;102275.41;5023839;28;20054;-76
2022/02/25 10:47:34;;;;;;;10.38;2.15;;;;;;;5.96;78.90;102296.28;5041783;28;20024;-76
2022/02/25 10:50:05;;;;;;;15.93;3.00;;;;;;;5.97;78.27;102292.81;5024194;28;20290;-77
2022/02/25 10:52:36;;;;;;;11.95;2.20;;;;;;;5.97;78.60;102303.22;5018115;28;20252;-77
2022/02/25 10:55:04;;;;;;;20.77;3.38;;;;;;;5.96;78.08;102294.53;5025382;28;20060;-76
2022/02/25 10:57:34;;;;;;;14.73;3.17;;;;;;;5.98;78.53;102310.16;5044672;28;20124;-77
2022/02/25 11:00:02;;;;;;;25.42;2.70;;;;;;;5.96;77.55;102310.13;5040367;28;20355;-76
2022/02/25 11:02:29;;;;;;;14.13;2.97;;;;;;;5.99;78.24;102314.50;5035244;28;20033;-76
2022/02/25 11:05:12;;;;;;;12.98;2.45;;;;;;;6.03;78.84;102324.03;5036174;28;20307;-76
2022/02/25 11:07:41;;;;;;;13.20;2.25;;;;;;;6.08;77.60;102334.47;5036514;28;20044;-76
2022/02/25 11:10:08;;;;;;;18.33;2.65;;;;;;;6.12;77.87;102324.03;5018806;28;20033;-76
2022/02/25 11:12:39;;;;;;;15.48;2.22;;;;;;;6.15;77.94;102333.59;5036940;28;20313;-77
2022/02/25 11:15:07;;;;;;;14.38;3.00;;;;;;;6.15;77.56;102342.28;5018273;28;20052;-76
2022/02/25 11:17:35;;;;;;;11.68;2.08;;;;;;;6.12;76.86;102352.66;5035388;28;20044;-76
2022/02/25 11:20:04;;;;;;;18.90;3.20;;;;;;;6.07;76.02;102348.31;5018391;28;20327;-76
2022/02/25 11:22:40;;;;;;;14.70;2.35;;;;;;;6.02;76.55;102361.31;5018591;28;20056;-76
2022/02/25 11:25:13;;;;;;;11.60;2.13;;;;;;;5.99;77.17;102363.91;5018133;28;20095;-77
2022/02/25 11:27:39;;;;;;;18.38;2.97;;;;;;;6.05;77.56;102363.06;5036300;28;20242;-76
2022/02/25 11:30:29;;;;;;;19.02;2.63;;;;;;;6.12;77.89;102376.06;5001802;28;20045;-77